createdAt,value
2019-05-21T00:00:40.178Z,63.71
2019-05-21T00:03:11.494Z,64.47
2019-05-21T00:05:42.129Z,65.43
2019-05-21T00:08:13.281Z,64.53
2019-05-21T00:10:43.931Z,64.18
2019-05-21T00:13:15.965Z,64.36
2019-05-21T00:15:46.304Z,64.34
2019-05-21T00:18:16.848Z,64.79
2019-05-21T00:20:47.186Z,64.91
2019-05-21T00:23:18.039Z,65.78
2019-05-21T00:25:48.398Z,65.27
2019-05-21T00:28:34.131Z,65.77
2019-05-21T00:31:40.870Z,65.94
2019-05-21T00:34:48.460Z,65.42
2019-05-21T00:37:55.542Z,65.62
2019-05-21T00:41:02.362Z,66.25
2019-05-21T00:43:45.439Z,65.37
2019-05-21T00:46:15.747Z,65.78
2019-05-21T00:48:47.091Z,65.88
2019-05-21T00:51:17.392Z,65.86
2019-05-21T00:53:47.757Z,65.97
2019-05-21T00:56:18.908Z,65.50
2019-05-21T00:58:49.434Z,65.15
2019-05-21T01:01:19.993Z,65.69
2019-05-21T01:03:52.606Z,65.20
2019-05-21T01:06:23.681Z,64.93
2019-05-21T01:08:54.807Z,65.85
2019-05-21T01:11:25.135Z,66.31
2019-05-21T01:13:56.997Z,66.38
2019-05-21T01:16:27.422Z,66.36
2019-05-21T01:18:57.783Z,66.41
2019-05-21T01:21:28.368Z,66.37
2019-05-21T01:23:58.711Z,65.08
2019-05-21T01:26:29.331Z,64.50
2019-05-21T01:29:00.518Z,65.23
2019-05-21T01:31:32.011Z,65.19
2019-05-21T01:34:02.357Z,65.78
2019-05-21T01:36:34.204Z,66.25
2019-05-21T01:39:05.917Z,66.30
2019-05-21T01:41:36.239Z,66.60
2019-05-21T01:44:07.725Z,66.77
2019-05-21T01:46:38.051Z,66.04
2019-05-21T01:49:08.338Z,65.71
2019-05-21T01:51:39.207Z,66.20
2019-05-21T01:54:10.653Z,66.41
2019-05-21T01:56:41.185Z,66.38
2019-05-21T01:59:11.712Z,65.63
2019-05-21T02:01:42.033Z,65.32
2019-05-21T02:04:13.595Z,65.81
2019-05-21T02:06:44.681Z,66.26
2019-05-21T02:09:15.434Z,65.55
2019-05-21T02:11:45.782Z,65.69
2019-05-21T02:14:17.329Z,65.34
2019-05-21T02:16:47.652Z,65.70
2019-05-21T02:19:18.324Z,65.49
2019-05-21T02:21:49.528Z,66.09
2019-05-21T02:24:19.949Z,66.44
2019-05-21T02:26:51.301Z,66.27
2019-05-21T02:29:21.625Z,66.16
2019-05-21T02:31:53.483Z,65.99
2019-05-21T02:34:23.881Z,65.77
2019-05-21T02:36:54.329Z,65.71
2019-05-21T02:39:24.868Z,65.54
2019-05-21T02:41:56.298Z,65.28
2019-05-21T02:44:26.974Z,64.88
2019-05-21T02:46:57.293Z,64.79
2019-05-21T02:49:27.659Z,64.84
2019-05-21T02:51:58.318Z,64.74
2019-05-21T02:54:40.245Z,64.34
2019-05-21T02:57:00.708Z,64.34
2019-05-21T02:59:31.430Z,64.36
2019-05-21T03:02:15.394Z,63.85
2019-05-21T03:04:47.218Z,64.37
2019-05-21T03:07:25.237Z,63.90
2019-05-21T03:09:53.788Z,63.83
2019-05-21T03:12:24.086Z,64.46
2019-05-21T03:14:56.336Z,64.79
2019-05-21T03:17:27.872Z,65.33
2019-05-21T03:19:58.688Z,65.47
2019-05-21T03:22:29.229Z,65.42
2019-05-21T03:25:02.330Z,65.82
2019-05-21T03:27:32.679Z,65.21
2019-05-21T03:30:03.061Z,65.53
2019-05-21T03:32:33.804Z,65.77
2019-05-21T03:35:09.905Z,65.89
2019-05-21T03:37:43.111Z,65.84
2019-05-21T03:40:14.174Z,65.45
2019-05-21T03:42:44.504Z,64.85
2019-05-21T03:45:16.895Z,64.83
2019-05-21T03:47:49.868Z,64.41
2019-05-21T03:50:20.180Z,63.47
2019-05-21T03:52:51.546Z,63.68
2019-05-21T03:55:23.587Z,64.36
2019-05-21T03:57:55.128Z,65.30
2019-05-21T04:00:26.315Z,65.71
2019-05-21T04:02:58.618Z,65.61
2019-05-21T04:05:29.503Z,65.71
2019-05-21T04:07:59.787Z,64.88
2019-05-21T04:10:47.685Z,63.61
2019-05-21T04:13:18.493Z,63.63
2019-05-21T04:16:00.585Z,64.19
2019-05-21T04:18:34.075Z,64.58
2019-05-21T04:21:04.502Z,64.85
2019-05-21T04:23:35.455Z,63.98
2019-05-21T04:26:08.036Z,64.99
2019-05-21T04:28:38.849Z,65.44
2019-05-21T04:31:09.174Z,65.55
2019-05-21T04:33:40.586Z,65.72
2019-05-21T04:36:11.467Z,65.72
2019-05-21T04:38:42.421Z,65.67
2019-05-21T04:41:12.760Z,64.23
2019-05-21T04:43:43.075Z,64.56
2019-05-21T04:46:14.721Z,64.95
2019-05-21T04:48:45.387Z,65.08
2019-05-21T04:51:15.744Z,64.72
2019-05-21T04:53:46.438Z,62.90
2019-05-21T04:56:16.786Z,63.39
2019-05-21T04:58:47.294Z,64.25
2019-05-21T05:01:18.574Z,64.29
2019-05-21T05:03:50.945Z,65.21
2019-05-21T05:06:22.096Z,65.21
2019-05-21T05:08:52.454Z,64.86
2019-05-21T05:11:22.728Z,64.15
2019-05-21T05:13:53.154Z,64.50
2019-05-21T05:16:24.093Z,64.18
2019-05-21T05:18:54.615Z,64.13
2019-05-21T05:21:24.944Z,64.35
2019-05-21T05:23:55.306Z,64.05
2019-05-21T05:26:25.702Z,64.16
2019-05-21T05:28:56.733Z,64.18
2019-05-21T05:31:27.162Z,64.37
2019-05-21T05:33:57.785Z,64.16
2019-05-21T05:36:28.086Z,63.74
2019-05-21T05:38:59.769Z,63.09
2019-05-21T05:41:30.080Z,63.53
2019-05-21T05:44:00.507Z,63.73
2019-05-21T05:46:32.362Z,63.46
2019-05-21T05:49:10.094Z,63.34
2019-05-21T05:51:41.239Z,63.11
2019-05-21T05:54:11.572Z,62.82
2019-05-21T05:56:42.765Z,61.82
2019-05-21T05:59:14.745Z,61.55
2019-05-21T06:01:45.295Z,62.68
2019-05-21T06:04:15.680Z,62.69
2019-05-21T06:06:46.824Z,62.69
2019-05-21T06:09:17.183Z,62.24
2019-05-21T06:11:49.007Z,61.66
2019-05-21T06:14:19.454Z,61.34
2019-05-21T06:16:50.468Z,61.35
2019-05-21T06:19:20.989Z,61.42
2019-05-21T06:21:53.215Z,61.17
2019-05-21T06:24:23.606Z,60.70
2019-05-21T06:26:54.229Z,60.61
2019-05-21T06:29:24.560Z,60.12
2019-05-21T06:31:55.262Z,58.88
2019-05-21T06:34:25.799Z,58.26
2019-05-21T06:36:57.261Z,57.91
2019-05-21T06:39:27.523Z,57.92
2019-05-21T06:41:59.229Z,57.70
2019-05-21T06:44:29.779Z,58.12
2019-05-21T06:47:01.947Z,57.80
2019-05-21T06:49:32.343Z,57.21
2019-05-21T06:52:03.477Z,55.10
2019-05-21T06:54:33.813Z,54.54
2019-05-21T06:57:06.541Z,53.64
2019-05-21T06:59:37.360Z,51.72
2019-05-21T07:02:08.201Z,51.19
2019-05-21T07:04:38.524Z,48.43
2019-05-21T07:07:10.101Z,45.54
2019-05-21T07:09:40.593Z,44.41
2019-05-21T07:12:11.984Z,41.83
2019-05-21T07:14:42.310Z,39.31
2019-05-21T07:17:12.934Z,36.98
2019-05-21T07:19:43.292Z,35.23
2019-05-21T07:22:13.778Z,34.36
2019-05-21T07:24:44.492Z,33.41
2019-05-21T07:27:15.541Z,32.08
2019-05-21T07:29:45.979Z,31.31
2019-05-21T07:32:16.940Z,31.21
2019-05-21T07:34:48.332Z,31.01
2019-05-21T07:37:18.863Z,30.15
2019-05-21T07:39:49.569Z,30.11
2019-05-21T07:42:20.590Z,29.44
2019-05-21T07:44:50.978Z,29.72
2019-05-21T07:47:21.673Z,30.38
2019-05-21T07:49:51.941Z,30.06
2019-05-21T07:52:26.083Z,30.06
2019-05-21T07:54:56.412Z,30.55
2019-05-21T07:57:26.778Z,30.15
2019-05-21T07:59:58.282Z,30.42
2019-05-21T08:02:29.593Z,30.33
2019-05-21T08:05:00.466Z,30.21
2019-05-21T08:07:31.708Z,30.54
2019-05-21T08:10:02.642Z,30.13
2019-05-21T08:12:38.816Z,30.50
2019-05-21T08:15:11.105Z,29.46
2019-05-21T08:17:42.602Z,29.28
2019-05-21T08:20:14.865Z,28.95
2019-05-21T08:22:46.478Z,29.46
2019-05-21T08:25:18.609Z,29.17
2019-05-21T08:27:48.990Z,28.64
2019-05-21T08:30:19.693Z,28.43
2019-05-21T08:32:50.551Z,27.89
2019-05-21T08:35:20.843Z,27.71
2019-05-21T08:37:51.139Z,27.18
2019-05-21T08:40:26.030Z,27.06
2019-05-21T08:42:57.425Z,27.60
2019-05-21T08:45:28.212Z,29.75
2019-05-21T08:48:00.620Z,29.88
2019-05-21T08:50:31.612Z,29.75
2019-05-21T08:53:01.983Z,30.45
2019-05-21T08:55:32.804Z,30.92
2019-05-21T08:58:07.385Z,30.97
2019-05-21T09:00:35.973Z,30.81
2019-05-21T09:03:07.837Z,30.91
2019-05-21T09:05:38.282Z,30.57
2019-05-21T09:08:09.183Z,29.94
2019-05-21T09:10:42.125Z,28.46
2019-05-21T09:13:13.453Z,27.47
2019-05-21T09:15:44.064Z,28.26
2019-05-21T09:18:16.577Z,28.63
2019-05-21T09:20:47.004Z,29.28
2019-05-21T09:23:17.323Z,28.77
2019-05-21T09:25:49.641Z,27.81
2019-05-21T09:28:20.422Z,29.43
2019-05-21T09:30:50.860Z,30.81
2019-05-21T09:33:21.214Z,30.58
2019-05-21T09:35:51.560Z,30.39
2019-05-21T09:38:22.233Z,30.08
2019-05-21T09:40:52.772Z,30.00
2019-05-21T09:43:23.546Z,30.86
2019-05-21T09:45:54.250Z,30.28
2019-05-21T09:48:24.825Z,30.13
2019-05-21T09:50:55.162Z,30.27
2019-05-21T09:53:25.800Z,29.70
2019-05-21T09:55:56.598Z,28.42
2019-05-21T09:58:28.595Z,28.35
2019-05-21T10:01:09.787Z,27.67
2019-05-21T10:03:48.800Z,27.70
2019-05-21T10:06:19.947Z,27.87
2019-05-21T10:08:51.698Z,28.09
2019-05-21T10:11:22.443Z,28.41
2019-05-21T10:13:52.969Z,28.64
2019-05-21T10:16:23.564Z,28.32
2019-05-21T10:18:55.449Z,27.51
2019-05-21T10:21:26.035Z,26.77
2019-05-21T10:23:59.602Z,26.35
2019-05-21T10:26:30.020Z,25.75
2019-05-21T10:29:03.290Z,26.21
2019-05-21T10:31:33.716Z,25.98
2019-05-21T10:34:05.790Z,26.18
2019-05-21T10:36:37.025Z,26.26
2019-05-21T10:39:08.669Z,26.25
2019-05-21T10:41:39.676Z,26.32
2019-05-21T10:44:10.354Z,27.58
2019-05-21T10:46:40.613Z,28.01
2019-05-21T10:49:11.490Z,29.41
2019-05-21T10:51:41.858Z,29.86
2019-05-21T10:54:12.636Z,28.95
2019-05-21T10:56:47.871Z,28.31
2019-05-21T10:59:15.034Z,28.40
2019-05-21T11:02:03.407Z,28.00
2019-05-21T11:04:57.683Z,26.95
2019-05-21T11:07:28.594Z,27.68
2019-05-21T11:10:03.817Z,27.99
2019-05-21T11:12:34.260Z,29.50
2019-05-21T11:15:08.295Z,30.37
2019-05-21T11:17:49.966Z,30.29
2019-05-21T11:20:14.803Z,29.47
2019-05-21T11:22:45.131Z,30.33
2019-05-21T11:25:19.000Z,30.23
2019-05-21T11:27:49.427Z,29.56
2019-05-21T11:30:22.644Z,28.97
2019-05-21T11:32:53.737Z,29.31
2019-05-21T11:35:24.618Z,28.96
2019-05-21T11:37:55.016Z,29.98
2019-05-21T11:40:26.402Z,29.72
2019-05-21T11:42:57.051Z,29.67
2019-05-21T11:45:32.095Z,29.92
2019-05-21T11:48:00.195Z,28.98
2019-05-21T11:50:31.240Z,27.90
2019-05-21T11:53:01.526Z,28.73
2019-05-21T11:55:33.961Z,29.58
2019-05-21T12:04:12.293Z,29.79
2019-05-21T12:07:03.718Z,29.18
2019-05-21T12:09:34.429Z,30.49
2019-05-21T12:12:06.989Z,31.38
2019-05-21T12:14:37.402Z,31.05
2019-05-21T12:17:07.959Z,30.34
2019-05-21T12:19:38.284Z,29.25
2019-05-21T12:22:09.064Z,29.39
2019-05-21T12:24:39.381Z,29.93
2019-05-21T12:27:11.559Z,30.74
2019-05-21T12:29:41.925Z,30.79
2019-05-21T12:32:14.510Z,30.34
2019-05-21T12:34:44.928Z,30.16
2019-05-21T12:37:15.417Z,30.51
2019-05-21T12:39:46.248Z,31.28
2019-05-21T12:42:17.452Z,31.20
2019-05-21T12:44:47.806Z,31.67
2019-05-21T12:47:20.384Z,31.53
2019-05-21T12:49:51.125Z,31.61
2019-05-21T12:52:22.208Z,32.07
2019-05-21T12:54:52.728Z,32.19
2019-05-21T12:57:23.083Z,32.49
2019-05-21T12:59:53.910Z,32.20
2019-05-21T13:02:26.049Z,31.38
2019-05-21T13:04:56.370Z,30.85
2019-05-21T13:07:27.167Z,30.00
2019-05-21T13:09:59.346Z,28.91
2019-05-21T13:12:30.184Z,28.90
2019-05-21T13:15:01.141Z,29.89
2019-05-21T13:17:31.953Z,30.37
2019-05-21T13:20:04.210Z,29.21
2019-05-21T13:22:36.698Z,29.46
2019-05-21T13:25:08.690Z,28.87
2019-05-21T13:27:39.489Z,29.29
2019-05-21T13:30:14.658Z,30.29
2019-05-21T13:32:45.183Z,30.18
2019-05-21T13:35:17.274Z,29.44
2019-05-21T13:37:47.678Z,29.11
2019-05-21T13:40:19.527Z,29.37
2019-05-21T13:42:50.903Z,28.82
2019-05-21T13:45:22.233Z,29.37
2019-05-21T13:47:52.628Z,29.33
2019-05-21T13:50:23.956Z,29.89
2019-05-21T13:52:55.231Z,29.56
2019-05-21T13:55:25.870Z,29.40
2019-05-21T13:57:56.265Z,29.82
2019-05-21T14:00:28.665Z,29.48
2019-05-21T14:02:59.084Z,28.24
2019-05-21T14:05:29.713Z,28.44
2019-05-21T14:08:00.611Z,28.56
2019-05-21T14:10:32.414Z,29.13
2019-05-21T14:13:03.256Z,28.62
2019-05-21T14:15:34.287Z,28.63
2019-05-21T14:18:05.141Z,28.62
2019-05-21T14:20:35.546Z,29.28
2019-05-21T14:23:07.407Z,29.97
2019-05-21T14:25:38.906Z,30.92
2019-05-21T14:28:09.227Z,31.65
2019-05-21T14:30:40.323Z,32.28
2019-05-21T14:33:10.653Z,32.15
2019-05-21T14:35:41.647Z,32.82
2019-05-21T14:38:12.010Z,33.38
2019-05-21T14:40:43.684Z,32.98
2019-05-21T14:43:14.505Z,33.13
2019-05-21T14:45:44.857Z,32.76
2019-05-21T14:48:15.239Z,32.73
2019-05-21T14:50:45.751Z,33.16
2019-05-21T14:53:16.506Z,32.59
2019-05-21T14:55:47.304Z,32.48
2019-05-21T14:58:17.619Z,32.81
2019-05-21T15:00:49.578Z,32.64
2019-05-21T15:03:25.369Z,31.75
2019-05-21T15:05:52.602Z,31.51
2019-05-21T15:08:22.988Z,31.55
2019-05-21T15:10:54.454Z,31.79
2019-05-21T15:13:25.604Z,31.59
2019-05-21T15:15:58.170Z,31.20
2019-05-21T15:18:28.691Z,31.17
2019-05-21T15:21:00.582Z,30.93
2019-05-21T15:23:33.078Z,30.92
2019-05-21T15:26:04.445Z,30.75
2019-05-21T15:28:35.248Z,31.28
2019-05-21T15:31:06.662Z,30.71
2019-05-21T15:33:37.385Z,30.67
2019-05-21T15:36:10.460Z,32.01
2019-05-21T15:38:50.206Z,32.60
2019-05-21T15:41:14.703Z,31.88
2019-05-21T15:43:45.176Z,31.88
2019-05-21T15:46:15.965Z,31.62
2019-05-21T15:48:46.843Z,31.42
2019-05-21T15:51:17.151Z,30.73
2019-05-21T15:53:48.306Z,31.08
2019-05-21T15:56:18.625Z,31.30
2019-05-21T15:58:48.975Z,31.16
2019-05-21T16:01:20.811Z,31.61
2019-05-21T16:03:52.436Z,31.80
2019-05-21T16:06:22.980Z,31.32
2019-05-21T16:08:54.869Z,31.94
2019-05-21T16:11:28.386Z,31.88
2019-05-21T16:13:58.180Z,31.88
2019-05-21T16:16:29.110Z,31.65
2019-05-21T16:18:59.588Z,32.00
2019-05-21T16:21:29.986Z,31.84
2019-05-21T16:24:00.376Z,32.37
2019-05-21T16:26:30.700Z,31.83
2019-05-21T16:29:01.129Z,31.83
2019-05-21T16:31:31.567Z,32.21
2019-05-21T16:34:02.993Z,32.13
2019-05-21T16:36:34.136Z,32.09
2019-05-21T16:39:06.914Z,32.43
2019-05-21T16:41:44.802Z,32.83
2019-05-21T16:44:09.782Z,32.46
2019-05-21T16:46:42.700Z,32.06
2019-05-21T16:49:12.690Z,32.58
2019-05-21T16:51:43.630Z,32.60
2019-05-21T16:54:15.812Z,32.91
2019-05-21T16:56:46.751Z,33.26
2019-05-21T16:59:17.018Z,32.80
2019-05-21T17:01:48.882Z,32.73
2019-05-21T17:04:19.232Z,33.21
2019-05-21T17:06:49.575Z,33.21
2019-05-21T17:09:22.152Z,33.37
2019-05-21T17:12:00.148Z,33.07
2019-05-21T17:14:25.152Z,33.21
2019-05-21T17:16:55.517Z,33.66
2019-05-21T17:19:25.899Z,33.29
2019-05-21T17:21:56.212Z,33.08
2019-05-21T17:24:27.172Z,33.36
2019-05-21T17:26:58.304Z,32.98
2019-05-21T17:29:28.862Z,33.44
2019-05-21T17:31:59.547Z,33.52
2019-05-21T17:34:29.862Z,33.67
2019-05-21T17:37:00.640Z,33.72
2019-05-21T17:39:31.633Z,34.01
2019-05-21T17:42:14.671Z,34.22
2019-05-21T17:44:34.861Z,34.25
2019-05-21T17:47:07.159Z,34.67
2019-05-21T17:49:39.398Z,34.77
2019-05-21T17:52:09.986Z,34.23
2019-05-21T17:54:56.289Z,34.20
2019-05-21T17:57:15.857Z,34.13
2019-05-21T17:59:47.653Z,34.08
2019-05-21T18:02:20.423Z,34.34
2019-05-21T18:04:51.850Z,33.82
2019-05-21T18:07:23.536Z,34.25
2019-05-21T18:09:54.172Z,34.70
2019-05-21T18:12:31.981Z,34.00
2019-05-21T18:14:58.699Z,34.07
2019-05-21T18:17:30.366Z,34.41
2019-05-21T18:20:02.458Z,34.64
2019-05-21T18:22:34.863Z,34.94
2019-05-21T18:25:08.818Z,35.22
2019-05-21T18:27:39.161Z,34.71
2019-05-21T18:30:11.635Z,35.02
2019-05-21T18:32:42.748Z,34.79
2019-05-21T18:35:14.267Z,35.00
2019-05-21T18:37:44.981Z,34.92
2019-05-21T18:40:15.560Z,35.53
2019-05-21T18:42:46.234Z,34.60
2019-05-21T18:45:18.180Z,34.56
2019-05-21T18:47:48.490Z,34.33
2019-05-21T18:50:33.379Z,34.85
2019-05-21T18:52:52.285Z,35.29
2019-05-21T18:55:24.205Z,34.87
2019-05-21T18:57:54.523Z,35.33
2019-05-21T19:00:26.010Z,35.65
2019-05-21T19:02:56.442Z,36.13
2019-05-21T19:05:29.223Z,36.59
2019-05-21T19:07:59.915Z,36.65
2019-05-21T19:10:30.829Z,37.20
2019-05-21T19:13:01.785Z,37.52
2019-05-21T19:15:34.974Z,38.36
2019-05-21T19:18:05.657Z,38.17
2019-05-21T19:20:36.595Z,38.48
2019-05-21T19:23:06.916Z,38.82
2019-05-21T19:25:39.723Z,38.76
2019-05-21T19:28:09.961Z,39.45
2019-05-21T19:30:41.157Z,39.87
2019-05-21T19:33:12.808Z,40.20
2019-05-21T19:35:43.538Z,40.14
2019-05-21T19:38:14.281Z,41.12
2019-05-21T19:40:47.913Z,41.85
2019-05-21T19:43:18.970Z,42.48
2019-05-21T19:45:49.640Z,43.24
2019-05-21T19:48:20.014Z,43.29
2019-05-21T19:50:50.626Z,43.89
2019-05-21T19:53:21.142Z,43.75
2019-05-21T19:55:55.131Z,43.78
2019-05-21T19:58:26.648Z,44.20
2019-05-21T20:00:58.481Z,44.44
2019-05-21T20:03:29.396Z,44.64
2019-05-21T20:06:01.571Z,45.34
2019-05-21T20:08:32.325Z,45.47
2019-05-21T20:11:03.755Z,46.05
2019-05-21T20:13:34.296Z,46.18
2019-05-21T20:16:06.928Z,47.16
2019-05-21T20:18:37.275Z,47.13
2019-05-21T20:21:09.631Z,47.64
2019-05-21T20:23:40.045Z,47.80
2019-05-21T20:26:18.583Z,47.82
2019-05-21T20:28:48.898Z,47.75
2019-05-21T20:31:20.249Z,48.11
2019-05-21T20:33:53.040Z,48.61
2019-05-21T20:36:24.414Z,48.52
2019-05-21T20:38:55.476Z,48.87
2019-05-21T20:41:26.037Z,49.10
2019-05-21T20:43:58.914Z,49.45
2019-05-21T20:46:29.028Z,49.13
2019-05-21T20:49:00.984Z,49.47
2019-05-21T20:51:33.342Z,49.79
2019-05-21T20:54:04.606Z,48.73
2019-05-21T20:56:36.829Z,49.72
2019-05-21T20:59:07.604Z,50.06
2019-05-21T21:01:38.351Z,49.61
2019-05-21T21:04:09.376Z,49.88
2019-05-21T21:06:44.236Z,50.43
2019-05-21T21:09:15.630Z,50.83
2019-05-21T21:11:46.670Z,50.74
2019-05-21T21:14:19.633Z,50.12
2019-05-21T21:16:51.912Z,50.06
2019-05-21T21:19:22.778Z,50.10
2019-05-21T21:21:55.876Z,50.68
2019-05-21T21:24:26.700Z,50.82
2019-05-21T21:26:58.717Z,51.21
2019-05-21T21:29:29.091Z,50.45
2019-05-21T21:32:00.615Z,50.56
2019-05-21T21:34:31.133Z,50.70
2019-05-21T21:37:02.812Z,50.58
2019-05-21T21:39:33.561Z,50.12
2019-05-21T21:42:06.638Z,50.50
2019-05-21T21:44:37.835Z,50.94
2019-05-21T21:47:11.176Z,51.06
2019-05-21T21:49:41.532Z,51.92
2019-05-21T21:52:13.650Z,52.48
2019-05-21T21:54:44.621Z,52.82
2019-05-21T21:57:15.953Z,53.21
2019-05-21T21:59:46.684Z,52.39
2019-05-21T22:02:27.766Z,52.39
2019-05-21T22:05:00.226Z,52.62
2019-05-21T22:07:33.182Z,52.02
2019-05-21T22:10:08.517Z,52.21
2019-05-21T22:12:39.267Z,52.27
2019-05-21T22:15:11.862Z,52.49
2019-05-21T22:17:43.165Z,51.53
2019-05-21T22:20:15.168Z,51.67
2019-05-21T22:22:46.449Z,52.13
2019-05-21T22:25:16.775Z,52.65
2019-05-21T22:27:47.786Z,52.78
2019-05-21T22:30:19.910Z,52.96
2019-05-21T22:32:51.525Z,53.21
2019-05-21T22:35:21.797Z,52.85
2019-05-21T22:37:52.969Z,53.38
2019-05-21T22:40:23.421Z,52.97
2019-05-21T22:42:53.915Z,52.87
2019-05-21T22:45:24.851Z,53.17
2019-05-21T22:47:57.502Z,52.55
2019-05-21T22:50:28.061Z,52.77
2019-05-21T22:52:58.403Z,52.79
2019-05-21T22:55:29.172Z,53.15
2019-05-21T22:58:00.308Z,53.26
2019-05-21T23:00:32.958Z,53.48
2019-05-21T23:03:04.179Z,53.67
2019-05-21T23:05:34.535Z,53.81
2019-05-21T23:08:05.534Z,54.17
2019-05-21T23:10:36.642Z,54.29
2019-05-21T23:13:07.307Z,54.32
2019-05-21T23:15:39.240Z,54.66
2019-05-21T23:18:13.077Z,54.72
2019-05-21T23:21:04.304Z,54.80
2019-05-21T23:23:36.072Z,55.13
2019-05-21T23:26:08.908Z,55.37
2019-05-21T23:28:41.734Z,55.43
2019-05-21T23:31:15.544Z,55.60
2019-05-21T23:33:45.863Z,55.76
2019-05-21T23:36:18.001Z,55.90
2019-05-21T23:38:49.922Z,56.00
2019-05-21T23:41:22.025Z,56.05
2019-05-21T23:43:53.063Z,55.94
2019-05-21T23:46:23.923Z,55.88
2019-05-21T23:48:54.294Z,55.58
2019-05-21T23:51:25.639Z,55.44
2019-05-21T23:53:56.807Z,55.41
2019-05-21T23:56:27.149Z,55.11
2019-05-21T23:58:57.884Z,55.15
